NORTHEAST SUFFOLK  -  Rip Current Statement Rip Current Statement        NORTHERN NASSAU  -  Rip Current Statement Rip Current Statement        NORTHERN QUEENS  -  Rip Current Statement Rip Current Statement        NORTHWEST SUFFOLK  -  Rip Current Statement Rip Current Statement        SOUTHEAST SUFFOLK  -  Rip Current Statement Rip Current Statement        SOUTHERN NASSAU  -  Rip Current Statement Rip Current Statement        SOUTHERN QUEENS  -  Rip Current Statement Rip Current Statement        SOUTHWEST SUFFOLK  -  Rip Current Statement Rip Current Statement      

Active alerts

Northern Queens
  Details for Northern Queens Rip Current Statement
Southern Queens
  Details for Southern Queens Rip Current Statement
Northern Nassau
  Details for Northern Nassau Rip Current Statement
Southern Nassau
  Details for Southern Nassau Rip Current Statement
Northwest Suffolk
  Details for Northwest Suffolk Rip Current Statement
Southwest Suffolk
  Details for Southwest Suffolk Rip Current Statement
Northeast Suffolk
  Details for Northeast Suffolk Rip Current Statement
Southeast Suffolk
  Details for Southeast Suffolk Rip Current Statement


WXM80 ListenWXM80 Stop

You find our weather info also at:

UK Metoffice

WeatherCloud

Weather Underground

Northeastern Weather Network

AWEKAS

Citizen Weather Observer Program (CWOP)

HAMweather, WeatherForYou, PWS Weather


Weather Underground History page Text

Daily Summary for February 11, 2017 Units:  Metric    English   Both
« Previous Day
Next Day »
Daily Weekly Monthly Yearly Custom
  High: Low: Average:
Temperature: 6.2 °C -2.6 °C 1.9 °C
Dew Point: 1.4 °C -5.2 °C -1.1 °C
Humidity: 92 % 59 % 81 %
Wind Speed: 7.9 km/h 0 km/h 1.8 km/h
Wind Gust: 11.3 km/h - -
Wind:- - SSW
Pressure: 1019.2 hPa 1011.1 hPa -
Precipitation: 0 mm    
Historical Graphs
 
 
Tabular Data for February 11, 2017
Time Temperature Dew Point Pressure Wind Wind Speed Wind Gust Humidity Rainfall Rate (Hourly)
00:03 -2.3 °C -5.2 °C 1019.2 hPa WSW 1.6 km/h 4.8 km/h 81 % 0 mm
00:08 -2.3 °C -5 °C 1019.2 hPa WSW 1 km/h 3.7 km/h 82 % 0 mm
00:13 -2.4 °C -5.1 °C 1018.8 hPa Calm   6.4 km/h 82 % 0 mm
00:18 -2.4 °C -5.1 °C 1018.8 hPa SW 1.6 km/h 3.2 km/h 82 % 0 mm
00:23 -2.4 °C -4.9 °C 1018.8 hPa Calm   6.4 km/h 83 % 0 mm
00:28 -2.4 °C -5.1 °C 1018.8 hPa Calm     82 % 0 mm
00:33 -2.4 °C -4.9 °C 1018.8 hPa South 1.6 km/h 8 km/h 83 % 0 mm
00:38 -2.5 °C -5 °C 1018.5 hPa SSE 1.4 km/h 5.6 km/h 83 % 0 mm
00:43 -2.5 °C -4.8 °C 1018.5 hPa SSE 0.8 km/h 5.6 km/h 84 % 0 mm
00:48 -2.5 °C -4.8 °C 1018.5 hPa SSE 3.2 km/h 4.8 km/h 84 % 0 mm
00:53 -2.5 °C -4.8 °C 1018.2 hPa Calm   6.4 km/h 84 % 0 mm
00:58 -2.5 °C -4.8 °C 1018.5 hPa Calm     84 % 0 mm
01:03 -2.5 °C -4.8 °C 1018.5 hPa Calm     84 % 0 mm
01:08 -2.5 °C -4.8 °C 1018.2 hPa Calm     84 % 0 mm
01:13 -2.6 °C -4.8 °C 1018.2 hPa SSE 1.6 km/h 1.6 km/h 84 % 0 mm
01:18 -2.6 °C -4.9 °C 1017.8 hPa SSE 1.6 km/h 4.8 km/h 84 % 0 mm
01:23 -2.6 °C -4.7 °C 1017.8 hPa SSE 1.6 km/h 3.2 km/h 85 % 0 mm
01:28 -2.6 °C -4.7 °C 1017.8 hPa SSE 1.6 km/h 3.2 km/h 85 % 0 mm
01:33 -2.6 °C -4.7 °C 1017.8 hPa Calm   3.2 km/h 85 % 0 mm
01:38 -2.6 °C -4.6 °C 1017.8 hPa Calm   4.8 km/h 86 % 0 mm
01:43 -2.6 °C -4.6 °C 1017.8 hPa SSE 1.6 km/h 4.8 km/h 86 % 0 mm
01:48 -2.6 °C -4.6 °C 1017.8 hPa SSE 1.6 km/h 6.4 km/h 86 % 0 mm
01:53 -2.6 °C -4.6 °C 1017.8 hPa SSE 1 km/h 5.6 km/h 86 % 0 mm
01:58 -2.6 °C -4.6 °C 1017.8 hPa SSE 0.6 km/h 5.6 km/h 86 % 0 mm
02:03 -2.6 °C -4.6 °C 1017.8 hPa Calm   4.8 km/h 86 % 0 mm
02:08 -2.5 °C -4.5 °C 1017.8 hPa Calm   4.8 km/h 86 % 0 mm
02:13 -2.5 °C -4.4 °C 1017.8 hPa Calm   3.2 km/h 87 % 0 mm
02:18 -2.4 °C -4.3 °C 1017.5 hPa ESE 1.6 km/h 6.4 km/h 87 % 0 mm
02:23 -2.4 °C -4.3 °C 1017.5 hPa ESE 1.6 km/h 4.8 km/h 87 % 0 mm
02:28 -2.4 °C -4.3 °C 1017.5 hPa Calm   4.8 km/h 87 % 0 mm
02:33 -2.4 °C -4.3 °C 1017.2 hPa ESE 1.6 km/h 3.2 km/h 87 % 0 mm
02:38 -2.4 °C -4.3 °C 1016.8 hPa ESE 4.8 km/h 11.3 km/h 87 % 0 mm
02:43 -2.3 °C -4.2 °C 1016.8 hPa ESE 0.6 km/h 3.7 km/h 87 % 0 mm
02:48 -2.3 °C -4.2 °C 1016.8 hPa SE 1.6 km/h 4.8 km/h 87 % 0 mm
02:53 -2.3 °C -4.2 °C 1016.5 hPa SE 0.3 km/h 5.6 km/h 87 % 0 mm
02:58 -2.3 °C -4.2 °C 1016.5 hPa SE 1.1 km/h 1.9 km/h 87 % 0 mm
03:03 -2.2 °C -3.9 °C 1016.1 hPa SE 3.5 km/h 5.6 km/h 88 % 0 mm
03:08 -2.2 °C -3.9 °C 1015.8 hPa SE 1.6 km/h 8 km/h 88 % 0 mm
03:13 -2.1 °C -3.8 °C 1015.5 hPa ESE 1.6 km/h 4.8 km/h 88 % 0 mm
03:18 -2.1 °C -3.8 °C 1015.5 hPa ESE 3.2 km/h 9.7 km/h 88 % 0 mm
03:23 -2 °C -3.7 °C 1015.5 hPa ESE 3.2 km/h 6.4 km/h 88 % 0 mm
03:28 -1.9 °C -3.7 °C 1015.1 hPa SE 3.2 km/h 11.3 km/h 88 % 0 mm
03:33 -1.9 °C -3.7 °C 1015.5 hPa SE 1.6 km/h 6.4 km/h 88 % 0 mm
03:38 -1.9 °C -3.6 °C 1015.1 hPa SSE 3.2 km/h 9.7 km/h 88 % 0 mm
03:43 -1.8 °C -3.6 °C 1015.1 hPa SE 1.6 km/h 6.4 km/h 88 % 0 mm
03:48 -1.8 °C -3.5 °C 1014.8 hPa SE 3.2 km/h 9.7 km/h 88 % 0 mm
03:53 -1.7 °C -3.4 °C 1014.8 hPa SSE 3.2 km/h 9.7 km/h 88 % 0 mm
03:58 -1.7 °C -3.4 °C 1015.1 hPa SSE 3.1 km/h 5.6 km/h 88 % 0 mm
04:03 -1.6 °C -3.3 °C 1014.8 hPa SSE 3.9 km/h 7.4 km/h 88 % 0 mm
04:08 -1.5 °C -3.2 °C 1014.8 hPa SE 5.6 km/h 9.3 km/h 88 % 0 mm
04:13 -1.4 °C -3.2 °C 1014.8 hPa SSE 2.9 km/h 5.6 km/h 88 % 0 mm
04:18 -1.4 °C -3.2 °C 1014.8 hPa SSE 2.1 km/h 3.7 km/h 88 % 0 mm
04:23 -1.4 °C -3.1 °C 1014.4 hPa SSE 0.6 km/h 3.7 km/h 88 % 0 mm
04:28 -1.3 °C -3.1 °C 1014.4 hPa SE 0.3 km/h 5.6 km/h 88 % 0 mm
04:34 -1.3 °C -3.1 °C 1014.4 hPa SE 1.6 km/h 4.8 km/h 88 % 0 mm
04:39 -1.3 °C -3 °C 1014.8 hPa SE 0.3 km/h 1.9 km/h 88 % 0 mm
04:44 -1.2 °C -2.9 °C 1014.4 hPa SE 0.8 km/h 1.9 km/h 88 % 0 mm
04:49 -1.2 °C -2.9 °C 1014.4 hPa SE 0.5 km/h 1.9 km/h 88 % 0 mm
04:54 -1.2 °C -2.9 °C 1014.1 hPa SE 0.2 km/h 1.9 km/h 88 % 0 mm
04:59 -1.1 °C -2.7 °C 1014.1 hPa Calm     89 % 0 mm
05:04 -1.1 °C -2.6 °C 1014.1 hPa Calm     89 % 0 mm
05:09 -1.1 °C -2.6 °C 1014.1 hPa Calm     89 % 0 mm
05:14 -1.1 °C -2.6 °C 1013.8 hPa Calm     89 % 0 mm
05:19 -1 °C -2.6 °C 1013.4 hPa Calm     89 % 0 mm
05:24 -0.9 °C -2.6 °C 1013.4 hPa Calm     89 % 0 mm
05:29 -0.9 °C -2.6 °C 1013.4 hPa Calm     89 % 0 mm
05:34 -0.9 °C -2.6 °C 1013.4 hPa Calm     89 % 0 mm
05:39 -0.9 °C -2.5 °C 1013.4 hPa Calm     89 % 0 mm
05:44 -0.8 °C -2.4 °C 1013.4 hPa Calm     89 % 0 mm
05:49 -0.8 °C -2.3 °C 1013.8 hPa SE 0.3 km/h 1.9 km/h 90 % 0 mm
05:55 -0.8 °C -2.2 °C 1013.4 hPa SE 1.1 km/h 3.2 km/h 90 % 0 mm
06:00 -0.8 °C -2.2 °C 1013.4 hPa Calm     90 % 0 mm
06:05 -0.8 °C -2.2 °C 1013.1 hPa Calm     90 % 0 mm
06:10 -0.8 °C -2.2 °C 1013.4 hPa Calm     90 % 0 mm
06:15 -0.8 °C -2.2 °C 1013.4 hPa Calm   1.6 km/h 90 % 0 mm
06:20 -0.7 °C -2.2 °C 1013.4 hPa Calm     90 % 0 mm
06:25 -0.7 °C -2.2 °C 1013.4 hPa Calm     90 % 0 mm
06:30 -0.7 °C -2.1 °C 1013.4 hPa Calm     90 % 0 mm
06:35 -0.7 °C -2.1 °C 1013.4 hPa SE 0.2 km/h 1.6 km/h 90 % 0 mm
06:40 -0.6 °C -2.1 °C 1013.4 hPa Calm     90 % 0 mm
06:45 -0.6 °C -2.1 °C 1013.1 hPa Calm     90 % 0 mm
06:50 -0.6 °C -2 °C 1013.1 hPa Calm     90 % 0 mm
06:55 -0.6 °C -2 °C 1013.1 hPa Calm     90 % 0 mm
07:00 -0.6 °C -2 °C 1013.1 hPa Calm     90 % 0 mm
07:06 -0.5 °C -1.8 °C 1013.1 hPa Calm     91 % 0 mm
07:11 -0.5 °C -1.8 °C 1013.1 hPa Calm     91 % 0 mm
07:16 -0.5 °C -1.9 °C 1013.4 hPa SE 1.8 km/h 3.7 km/h 90 % 0 mm
07:21 -0.4 °C -1.7 °C 1013.4 hPa Calm   1.9 km/h 91 % 0 mm
07:26 -0.4 °C -1.9 °C 1013.4 hPa Calm     90 % 0 mm
07:31 -0.4 °C -1.9 °C 1013.1 hPa SE 0.8 km/h 3.7 km/h 90 % 0 mm
07:36 -0.4 °C -1.8 °C 1013.1 hPa Calm   1.9 km/h 90 % 0 mm
07:41 -0.4 °C -1.7 °C 1013.1 hPa Calm   1.9 km/h 91 % 0 mm
07:46 -0.3 °C -1.6 °C 1013.1 hPa Calm   1.9 km/h 91 % 0 mm
07:51 -0.3 °C -1.6 °C 1013.1 hPa Calm     91 % 0 mm
07:56 -0.3 °C -1.6 °C 1013.1 hPa Calm     91 % 0 mm
08:01 -0.2 °C -1.5 °C 1013.1 hPa Calm     91 % 0 mm
08:06 -0.2 °C -1.4 °C 1013.1 hPa Calm     91 % 0 mm
08:11 -0.1 °C -1.3 °C 1013.4 hPa Calm     91 % 0 mm
08:16 0 °C -1.3 °C 1013.4 hPa Calm     91 % 0 mm
08:21 0.1 °C -1.2 °C 1013.4 hPa Calm     91 % 0 mm
08:27 0.2 °C -1.1 °C 1013.1 hPa Calm     91 % 0 mm
08:37 0.4 °C -0.9 °C 1013.1 hPa Calm     91 % 0 mm
08:42 0.5 °C -0.7 °C 1013.4 hPa Calm     92 % 0 mm
08:47 0.6 °C -0.6 °C 1013.1 hPa Calm     92 % 0 mm
08:52 0.7 °C -0.4 °C 1013.1 hPa Calm     92 % 0 mm
08:57 0.9 °C -0.3 °C 1013.1 hPa Calm     92 % 0 mm
09:02 1 °C -0.2 °C 1012.8 hPa Calm     92 % 0 mm
09:07 1.1 °C -0.1 °C 1013.1 hPa Calm   1.9 km/h 92 % 0 mm
09:12 1.3 °C 0 °C 1013.1 hPa South 0.6 km/h 3.7 km/h 91 % 0 mm
09:17 1.5 °C 0.2 °C 1013.1 hPa South 0.6 km/h 3.7 km/h 91 % 0 mm
09:22 1.7 °C 0.3 °C 1013.1 hPa Calm   1.9 km/h 91 % 0 mm
09:27 1.8 °C 0.4 °C 1013.1 hPa Calm     90 % 0 mm
09:32 2.1 °C 0.6 °C 1013.1 hPa West 2.7 km/h 5.6 km/h 90 % 0 mm
09:37 2.3 °C 0.7 °C 1013.4 hPa West 0.2 km/h 1.9 km/h 89 % 0 mm
09:42 2.4 °C 0.8 °C 1013.4 hPa West 0.5 km/h 3.7 km/h 89 % 0 mm
09:47 2.6 °C 0.8 °C 1012.8 hPa Calm   3.7 km/h 88 % 0 mm
09:53 2.8 °C 1 °C 1013.1 hPa West 0.2 km/h 1.6 km/h 88 % 0 mm
09:58 2.9 °C 0.9 °C 1013.1 hPa WNW 1 km/h 3.7 km/h 87 % 0 mm
10:03 3 °C 0.9 °C 1013.1 hPa WNW 2.9 km/h 5.6 km/h 86 % 0 mm
10:08 3.1 °C 0.8 °C 1013.1 hPa Calm   1.9 km/h 85 % 0 mm
10:13 3.2 °C 0.9 °C 1013.1 hPa WNW 2.7 km/h 5.6 km/h 85 % 0 mm
10:18 3.3 °C 0.9 °C 1013.1 hPa WNW 1.3 km/h 5.6 km/h 84 % 0 mm
10:23 3.4 °C 1 °C 1012.8 hPa WNW 2.4 km/h 5.6 km/h 84 % 0 mm
10:28 3.5 °C 1.1 °C 1013.1 hPa WNW 0.8 km/h 3.7 km/h 84 % 0 mm
10:33 3.6 °C 1.1 °C 1013.1 hPa WNW 1.8 km/h 3.7 km/h 84 % 0 mm
10:38 3.7 °C 1.3 °C 1012.8 hPa WNW 0.8 km/h 1.9 km/h 84 % 0 mm
10:43 3.8 °C 1.3 °C 1013.1 hPa WNW 2.3 km/h 4.8 km/h 84 % 0 mm
10:48 3.8 °C 1.4 °C 1012.8 hPa WNW 1.8 km/h 5.6 km/h 84 % 0 mm
10:53 3.9 °C 1.4 °C 1013.1 hPa WNW 3.9 km/h 5.6 km/h 84 % 0 mm
10:58 3.9 °C 1.3 °C 1013.1 hPa WNW 1.4 km/h 5.6 km/h 83 % 0 mm
11:03 3.9 °C 1.3 °C 1013.1 hPa WNW 3.2 km/h 6.4 km/h 83 % 0 mm
11:08 4.1 °C 1.3 °C 1013.1 hPa West 1.6 km/h 8 km/h 82 % 0 mm
11:13 4.2 °C 1.1 °C 1013.1 hPa WSW 3.2 km/h 8 km/h 80 % 0 mm
11:18 4.3 °C 1 °C 1012.8 hPa West 4 km/h 7.4 km/h 79 % 0 mm
11:24 4.4 °C 0.6 °C 1012.4 hPa WSW 7.4 km/h 11.1 km/h 76 % 0 mm
11:29 4.6 °C 0.7 °C 1012.8 hPa West 4.3 km/h 6.4 km/h 76 % 0 mm
11:34 4.7 °C 0.7 °C 1012.4 hPa WSW 5.3 km/h 8 km/h 75 % 0 mm
11:39 4.8 °C 0.7 °C 1012.4 hPa Calm   1.6 km/h 75 % 0 mm
11:44 4.8 °C 0.9 °C 1012.4 hPa NW 2.9 km/h 3.7 km/h 76 % 0 mm
11:49 4.8 °C 0.9 °C 1012.8 hPa WNW 4.3 km/h 9.3 km/h 76 % 0 mm
11:54 4.7 °C 0.8 °C 1012.4 hPa West 4.5 km/h 5.6 km/h 76 % 0 mm
11:59 4.6 °C 0.7 °C 1012.4 hPa Calm   1.9 km/h 76 % 0 mm
12:04 4.7 °C 0.8 °C 1012.4 hPa WNW 0.6 km/h 1.9 km/h 76 % 0 mm
12:09 4.7 °C 0.4 °C 1012.4 hPa WNW 2.1 km/h 5.6 km/h 74 % 0 mm
12:14 4.7 °C 0.7 °C 1012.4 hPa WNW 2.7 km/h 5.6 km/h 75 % 0 mm
12:19 4.8 °C 0.2 °C 1012.4 hPa WNW 0.5 km/h 1.9 km/h 72 % 0 mm
12:24 4.9 °C 0.7 °C 1012.1 hPa WNW 1.4 km/h 3.7 km/h 74 % 0 mm
12:29 5 °C 0.2 °C 1012.1 hPa West 5.1 km/h 8 km/h 71 % 0 mm
12:34 5.1 °C 0.1 °C 1012.1 hPa West 3.1 km/h 6.4 km/h 70 % 0 mm
12:39 5.2 °C 0.4 °C 1012.1 hPa West 0.3 km/h 1.9 km/h 71 % 0 mm
12:44 5.3 °C -0.3 °C 1012.1 hPa WSW 6.4 km/h 7.4 km/h 67 % 0 mm
12:49 5.4 °C 0.2 °C 1012.1 hPa West 2.7 km/h 5.6 km/h 69 % 0 mm
12:54 5.4 °C 0.4 °C 1012.1 hPa NW 2.3 km/h 7.4 km/h 70 % 0 mm
12:59 5.6 °C 0.3 °C 1011.7 hPa Calm   1.6 km/h 69 % 0 mm
13:04 5.7 °C 0 °C 1011.4 hPa West 0.6 km/h 4.8 km/h 67 % 0 mm
13:09 5.8 °C -0.7 °C 1011.4 hPa WSW 2.6 km/h 5.6 km/h 63 % 0 mm
13:15 5.8 °C 0.2 °C 1011.7 hPa WNW 2.6 km/h 5.6 km/h 67 % 0 mm
13:20 5.8 °C -0.1 °C 1011.7 hPa West 0.2 km/h 4.8 km/h 66 % 0 mm
13:25 5.8 °C -0.3 °C 1011.7 hPa NW 0.5 km/h 5.6 km/h 65 % 0 mm
13:30 5.8 °C -0.1 °C 1011.4 hPa NW 1 km/h 5.6 km/h 66 % 0 mm
13:35 5.8 °C -0.1 °C 1011.1 hPa WNW 1.6 km/h 4.8 km/h 66 % 0 mm
13:40 5.8 °C -0.4 °C 1011.1 hPa WSW 1.3 km/h 5.6 km/h 64 % 0 mm
13:45 5.8 °C -0.9 °C 1011.1 hPa SW 7.4 km/h 9.3 km/h 62 % 0 mm
13:50 5.9 °C -0.8 °C 1011.1 hPa WSW 5.8 km/h 9.3 km/h 62 % 0 mm
13:55 5.8 °C -0.7 °C 1011.1 hPa West 4.2 km/h 7.4 km/h 63 % 0 mm
14:00 5.8 °C -0.2 °C 1011.4 hPa West 2.4 km/h 3.7 km/h 65 % 0 mm
14:05 5.9 °C 0 °C 1011.4 hPa WNW 2.3 km/h 5.6 km/h 66 % 0 mm
14:10 5.8 °C -0.5 °C 1011.4 hPa WNW 2.9 km/h 5.6 km/h 64 % 0 mm
14:15 5.7 °C -0.6 °C 1011.4 hPa NW 3.1 km/h 6.4 km/h 64 % 0 mm
14:20 5.7 °C -0.6 °C 1011.7 hPa WNW 1.3 km/h 3.7 km/h 64 % 0 mm
14:26 5.6 °C -0.4 °C 1011.7 hPa NW 3.1 km/h 5.6 km/h 65 % 0 mm
14:31 5.6 °C -0.4 °C 1011.4 hPa NW 1.6 km/h 3.7 km/h 65 % 0 mm
14:36 5.7 °C -0.6 °C 1011.7 hPa NW 1.4 km/h 3.7 km/h 64 % 0 mm
14:41 5.7 °C -0.6 °C 1011.7 hPa NW 1.3 km/h 3.7 km/h 64 % 0 mm
14:46 5.7 °C -0.6 °C 1011.7 hPa NW 0.2 km/h 1.9 km/h 64 % 0 mm
14:51 5.7 °C -0.8 °C 1011.7 hPa NW 1 km/h 5.6 km/h 63 % 0 mm
14:56 5.7 °C -0.8 °C 1012.1 hPa NW 2.4 km/h 5.6 km/h 63 % 0 mm
15:01 5.7 °C -0.8 °C 1012.1 hPa WNW 1.3 km/h 3.7 km/h 63 % 0 mm
15:06 5.7 °C -0.8 °C 1012.4 hPa WNW 0.3 km/h 3.7 km/h 63 % 0 mm
15:11 5.7 °C -1 °C 1012.4 hPa WNW 1.9 km/h 5.6 km/h 62 % 0 mm
15:16 5.8 °C -0.9 °C 1012.4 hPa WNW 3.4 km/h 6.4 km/h 62 % 0 mm
15:21 5.8 °C -0.9 °C 1012.8 hPa WNW 1.6 km/h 3.7 km/h 62 % 0 mm
15:26 5.9 °C -1.3 °C 1012.8 hPa WNW 0.5 km/h 5.6 km/h 60 % 0 mm
15:31 5.9 °C -1.2 °C 1012.8 hPa WNW 1.1 km/h 5.6 km/h 60 % 0 mm
15:36 6.1 °C -0.9 °C 1012.8 hPa WNW 4.2 km/h 5.6 km/h 61 % 0 mm
15:42 6.1 °C -1.4 °C 1012.8 hPa WNW 3.4 km/h 5.6 km/h 59 % 0 mm
15:47 6.1 °C -0.8 °C 1013.1 hPa WNW 2.3 km/h 5.6 km/h 61 % 0 mm
15:52 6.1 °C -0.8 °C 1013.1 hPa WNW 0.5 km/h 1.9 km/h 61 % 0 mm
15:57 6.2 °C -0.6 °C 1013.1 hPa Calm     62 % 0 mm
16:02 6.2 °C -0.6 °C 1013.1 hPa WNW 0.2 km/h 1.6 km/h 62 % 0 mm
16:07 6.1 °C -1.1 °C 1013.1 hPa WNW 0.5 km/h 1.9 km/h 60 % 0 mm
16:12 6.1 °C -0.8 °C 1013.4 hPa WNW 1.8 km/h 5.6 km/h 61 % 0 mm
16:17 6.1 °C -1.1 °C 1013.4 hPa WNW 1.3 km/h 3.7 km/h 60 % 0 mm
16:22 6 °C -0.9 °C 1013.1 hPa WNW 1.9 km/h 5.6 km/h 61 % 0 mm
16:27 5.9 °C -1.2 °C 1013.1 hPa WNW 3.4 km/h 5.6 km/h 60 % 0 mm
16:32 5.9 °C -1.1 °C 1013.1 hPa Calm     61 % 0 mm
16:37 5.9 °C -0.6 °C 1013.1 hPa Calm     63 % 0 mm
16:42 5.8 °C -0.4 °C 1013.1 hPa Calm     64 % 0 mm
16:47 5.8 °C -0.5 °C 1013.1 hPa Calm   1.9 km/h 64 % 0 mm
16:52 5.7 °C -0.8 °C 1013.1 hPa WNW 0.2 km/h 1.9 km/h 63 % 0 mm
16:53 5.7 °C -0.3 °C 1013.1 hPa WNW 0.5 km/h 1.9 km/h 65 % 0 mm
16:58 5.6 °C -0.4 °C 1013.4 hPa WNW 1.6 km/h 3.2 km/h 65 % 0 mm
17:03 5.6 °C 0.2 °C 1013.4 hPa Calm   1.9 km/h 68 % 0 mm
17:08 5.6 °C -0.3 °C 1013.8 hPa WNW 0.6 km/h 3.7 km/h 66 % 0 mm
17:13 5.4 °C -0.4 °C 1013.8 hPa Calm   1.6 km/h 66 % 0 mm
17:18 5.4 °C -0.2 °C 1013.8 hPa WNW 1.6 km/h 3.2 km/h 67 % 0 mm
17:23 5.3 °C -0.5 °C 1013.8 hPa WNW 1.6 km/h 4.8 km/h 66 % 0 mm
17:28 5.3 °C -0.4 °C 1014.1 hPa Calm   3.2 km/h 67 % 0 mm
17:33 5.2 °C -0.2 °C 1014.1 hPa WNW 1.6 km/h 4.8 km/h 68 % 0 mm
17:38 5.2 °C -0.1 °C 1014.1 hPa Calm   3.2 km/h 69 % 0 mm
17:43 5.1 °C -0.2 °C 1014.1 hPa WNW 0.2 km/h   69 % 0 mm
17:48 5 °C 0 °C 1014.1 hPa Calm     70 % 0 mm
17:53 4.9 °C -0.1 °C 1014.1 hPa Calm   1.6 km/h 70 % 0 mm
17:58 4.8 °C -0.1 °C 1014.1 hPa Calm   1.6 km/h 71 % 0 mm
18:03 4.7 °C 0.1 °C 1014.4 hPa Calm     72 % 0 mm
18:09 4.5 °C 0.3 °C 1014.4 hPa Calm     74 % 0 mm
18:13 4.4 °C 0.3 °C 1014.4 hPa NNW 2.3 km/h 3.7 km/h 75 % 0 mm
18:19 4.3 °C 0.2 °C 1014.4 hPa NNW 1.4 km/h 3.7 km/h 75 % 0 mm
18:24 4.1 °C 0 °C 1014.8 hPa NNW 0.5 km/h 3.7 km/h 75 % 0 mm
18:29 3.9 °C 0.1 °C 1014.8 hPa Calm     76 % 0 mm
18:34 3.8 °C 0.1 °C 1014.8 hPa NNW 1.9 km/h 3.7 km/h 77 % 0 mm
18:39 3.7 °C 0.2 °C 1014.8 hPa NNW 0.5 km/h 1.9 km/h 78 % 0 mm
18:44 3.6 °C 0.3 °C 1015.1 hPa NNW 1.9 km/h 3.7 km/h 79 % 0 mm
18:49 3.4 °C 0.3 °C 1015.1 hPa Calm     80 % 0 mm
18:54 3.3 °C 0.4 °C 1015.1 hPa NNW 1 km/h 1.9 km/h 81 % 0 mm
18:59 3.3 °C 0.3 °C 1015.5 hPa NNW 0.5 km/h 1.9 km/h 81 % 0 mm
19:04 3.2 °C 0.4 °C 1015.5 hPa NNW 0.2 km/h 1.9 km/h 82 % 0 mm
19:09 3.1 °C 0.3 °C 1015.5 hPa Calm   3.7 km/h 82 % 0 mm
19:14 3 °C 0.4 °C 1015.5 hPa Calm   3.7 km/h 83 % 0 mm
19:19 2.9 °C 0.5 °C 1015.5 hPa Calm     84 % 0 mm
19:24 2.8 °C 0.4 °C 1015.8 hPa Calm     84 % 0 mm
19:29 2.8 °C 0.6 °C 1015.8 hPa NNW 2.1 km/h 3.7 km/h 85 % 0 mm
19:34 2.8 °C 0.7 °C 1015.8 hPa North 1.8 km/h 3.7 km/h 86 % 0 mm
19:39 2.7 °C 0.6 °C 1016.1 hPa NNE 2.6 km/h 5.6 km/h 86 % 0 mm
19:45 2.7 °C 0.8 °C 1016.1 hPa NNE 0.8 km/h 3.7 km/h 87 % 0 mm
19:50 2.7 °C 0.7 °C 1016.1 hPa NNE 0.8 km/h 3.7 km/h 87 % 0 mm
19:55 2.7 °C 0.7 °C 1016.1 hPa Calm     87 % 0 mm
20:00 2.6 °C 0.7 °C 1016.5 hPa NNE 0.2 km/h 3.2 km/h 87 % 0 mm
20:05 2.6 °C 0.4 °C 1016.5 hPa Calm     86 % 0 mm
20:10 2.5 °C 0.4 °C 1016.5 hPa NNE 2.6 km/h 5.6 km/h 86 % 0 mm
20:15 2.4 °C 0.2 °C 1016.5 hPa East 4.7 km/h 7.4 km/h 85 % 0 mm
20:20 2.4 °C 0.1 °C 1016.5 hPa East 3.1 km/h 5.6 km/h 85 % 0 mm
20:25 2.3 °C 0.2 °C 1016.5 hPa East 6.4 km/h 9.3 km/h 86 % 0 mm
20:30 2.3 °C 0.2 °C 1016.5 hPa ENE 2.1 km/h 5.6 km/h 86 % 0 mm
20:35 2.3 °C 0.3 °C 1016.8 hPa ENE 3.9 km/h 5.6 km/h 87 % 0 mm
20:40 2.2 °C 0.3 °C 1016.8 hPa ENE 2.9 km/h 5.6 km/h 87 % 0 mm
20:45 2.2 °C 0.2 °C 1016.8 hPa ENE 5 km/h 5.6 km/h 87 % 0 mm
20:50 2.1 °C 0.2 °C 1016.8 hPa East 2.9 km/h 7.4 km/h 87 % 0 mm
20:55 2.1 °C 0.1 °C 1017.2 hPa East 2.6 km/h 3.7 km/h 87 % 0 mm
21:00 2 °C 0.1 °C 1017.2 hPa East 5.6 km/h 7.4 km/h 87 % 0 mm
21:06 1.9 °C 0.2 °C 1017.2 hPa East 3.2 km/h 5.6 km/h 88 % 0 mm
21:11 1.9 °C 0.1 °C 1017.2 hPa East 3.5 km/h 5.6 km/h 88 % 0 mm
21:16 1.8 °C 0.1 °C 1017.2 hPa East 1.8 km/h 3.7 km/h 88 % 0 mm
21:21 1.8 °C 0.1 °C 1017.5 hPa East 2.1 km/h 3.7 km/h 88 % 0 mm
21:26 1.8 °C 0.1 °C 1017.2 hPa East 2.3 km/h 3.7 km/h 88 % 0 mm
21:31 1.8 °C 0 °C 1016.8 hPa East 2.3 km/h 3.7 km/h 88 % 0 mm
21:36 1.8 °C 0.2 °C 1016.8 hPa East 1.6 km/h 3.7 km/h 89 % 0 mm
21:41 1.8 °C 0.2 °C 1016.8 hPa East 5.1 km/h 8 km/h 89 % 0 mm
21:46 1.8 °C 0.2 °C 1016.8 hPa ENE 4.5 km/h 6.4 km/h 89 % 0 mm
21:51 1.8 °C 0.2 °C 1017.2 hPa East 4.7 km/h 5.6 km/h 89 % 0 mm
21:56 1.7 °C 0.1 °C 1017.5 hPa East 4.8 km/h 9.3 km/h 89 % 0 mm
22:01 1.7 °C 0.1 °C 1017.2 hPa East 4.8 km/h 5.6 km/h 89 % 0 mm
22:06 1.7 °C 0.1 °C 1017.5 hPa ENE 4.8 km/h 7.4 km/h 89 % 0 mm
22:11 1.7 °C 0.1 °C 1017.5 hPa ENE 4.5 km/h 5.6 km/h 89 % 0 mm
22:16 1.7 °C 0.1 °C 1017.2 hPa East 6.9 km/h 9.3 km/h 89 % 0 mm
22:21 1.6 °C -0.1 °C 1017.5 hPa East 6.6 km/h 8 km/h 89 % 0 mm
22:26 1.6 °C -0.1 °C 1017.5 hPa East 5.1 km/h 7.4 km/h 89 % 0 mm
22:31 1.5 °C -0.1 °C 1017.5 hPa East 6.8 km/h 9.3 km/h 89 % 0 mm
22:36 1.5 °C -0.1 °C 1017.2 hPa East 7.2 km/h 9.3 km/h 89 % 0 mm
22:41 1.4 °C -0.2 °C 1017.8 hPa East 5.6 km/h 8 km/h 89 % 0 mm
22:47 1.4 °C -0.2 °C 1017.8 hPa East 5.8 km/h 8 km/h 89 % 0 mm
22:52 1.4 °C -0.2 °C 1017.5 hPa East 4.7 km/h 8 km/h 89 % 0 mm
22:57 1.3 °C -0.3 °C 1017.8 hPa East 7.9 km/h 9.3 km/h 89 % 0 mm
23:02 1.3 °C -0.3 °C 1017.8 hPa East 6.8 km/h 9.3 km/h 89 % 0 mm
23:07 1.3 °C -0.3 °C 1017.8 hPa East 6.9 km/h 7.4 km/h 89 % 0 mm
23:12 1.3 °C -0.3 °C 1018.2 hPa East 6.8 km/h 9.3 km/h 89 % 0 mm
23:17 1.3 °C -0.3 °C 1018.2 hPa East 6.1 km/h 8 km/h 89 % 0 mm
23:22 1.3 °C -0.3 °C 1018.2 hPa ENE 5 km/h 9.3 km/h 89 % 0 mm
23:27 1.3 °C -0.3 °C 1018.5 hPa ENE 5.1 km/h 5.6 km/h 89 % 0 mm
23:32 1.3 °C -0.3 °C 1018.2 hPa ENE 6.8 km/h 7.4 km/h 89 % 0 mm
23:37 1.3 °C -0.3 °C 1018.5 hPa East 4.3 km/h 5.6 km/h 89 % 0 mm
23:42 1.3 °C -0.3 °C 1018.5 hPa East 6.6 km/h 8 km/h 89 % 0 mm
23:47 1.4 °C -0.2 °C 1018.2 hPa East 4.8 km/h 8 km/h 89 % 0 mm
23:52 1.4 °C -0.2 °C 1018.2 hPa ENE 4.8 km/h 7.4 km/h 89 % 0 mm
23:57 1.4 °C -0.2 °C 1018.5 hPa ENE 6.6 km/h 7.4 km/h 89 % 0 mm
Crab Meadow Weather
Compliments of Weather Underground - 3 mb

Script developed by  Jim McMurry - jmcmurry@mwt.net Adapted for the template by  Wim van der Kuil - Leuven-Template.eu

Weather Terms: Flood Stage - The level or stage at which a stream overflows its banks or the stage at which the overflow of a stream begins to cause damage.